Time;durP1;ratioP1;P1;durP2;ratioP2;P2;SDS_P1;SDS_P2;PMS_P1;PMS_P2;Temp;Humidity;BMP_temperature;BMP_pressure;BME280_temperature;BME280_humidity;BME280_pressure;Samples;Min_cycle;Max_cycle;Signal;HPM_P1;HPM_P2
2022/10/17 00:00:03;;;;;;;3.67;2.40;;;;;;;12.36;100.00;96390.91;5001909;28;24433;-74
2022/10/17 00:02:29;;;;;;;3.60;2.13;;;;;;;12.29;100.00;96393.03;5007862;28;24462;-74
2022/10/17 00:04:56;;;;;;;6.68;2.45;;;;;;;12.34;100.00;96393.56;5011948;28;24441;-74
2022/10/17 00:07:22;;;;;;;8.32;2.10;;;;;;;12.26;100.00;96394.97;5004012;28;24635;-74
2022/10/17 00:09:49;;;;;;;4.10;2.05;;;;;;;12.23;100.00;96395.97;5003563;28;24444;-74
2022/10/17 00:12:15;;;;;;;7.10;2.10;;;;;;;12.34;100.00;96396.16;5021708;28;24988;-74
2022/10/17 00:14:42;;;;;;;3.92;1.80;;;;;;;12.37;100.00;96395.16;5016827;28;24444;-74
2022/10/17 00:17:10;;;;;;;5.30;1.90;;;;;;;12.40;100.00;96394.97;5011629;28;24816;-74
2022/10/17 00:19:36;;;;;;;4.05;1.80;;;;;;;12.38;100.00;96390.78;5010752;28;24455;-73
2022/10/17 00:22:03;;;;;;;10.23;1.90;;;;;;;12.31;100.00;96390.31;5007916;28;25147;-74
2022/10/17 00:24:30;;;;;;;2.97;1.90;;;;;;;12.35;100.00;96410.00;5014750;28;24447;-74
2022/10/17 00:26:56;;;;;;;4.82;1.95;;;;;;;12.33;100.00;96406.66;5007369;28;24448;-74
2022/10/17 00:29:23;;;;;;;2.85;1.48;;;;;;;12.21;100.00;96400.44;5009471;28;24443;-75
2022/10/17 00:31:50;;;;;;;6.10;1.70;;;;;;;12.06;100.00;96406.53;5015585;28;24460;-74
2022/10/17 00:34:18;;;;;;;4.72;1.60;;;;;;;11.97;100.00;96415.66;5012613;28;24440;-74
2022/10/17 00:36:44;;;;;;;7.75;1.60;;;;;;;11.91;100.00;96415.22;5005561;28;24448;-74
2022/10/17 00:39:10;;;;;;;7.65;1.80;;;;;;;11.88;100.00;96407.59;5007488;28;24443;-74
2022/10/17 00:41:37;;;;;;;3.33;1.50;;;;;;;11.89;100.00;96414.44;5014972;28;24527;-74
2022/10/17 00:44:06;;;;;;;3.85;1.80;;;;;;;11.92;100.00;96409.91;5014984;28;24444;-75
2022/10/17 00:46:34;;;;;;;4.63;1.88;;;;;;;11.93;100.00;96406.41;5010748;28;24543;-74
2022/10/17 00:49:04;;;;;;;1.92;1.63;;;;;;;11.94;100.00;96413.28;5011663;28;24444;-74
2022/10/17 00:51:37;;;;;;;4.85;1.70;;;;;;;11.95;100.00;96408.91;5012810;28;24448;-74
2022/10/17 00:54:04;;;;;;;4.70;1.67;;;;;;;11.88;100.00;96413.63;5001107;28;24527;-74
2022/10/17 00:56:31;;;;;;;2.70;1.70;;;;;;;11.82;100.00;96411.34;5005669;28;24441;-74
2022/10/17 00:58:58;;;;;;;2.85;1.75;;;;;;;11.80;100.00;96414.03;5006985;28;24997;-76
2022/10/17 01:01:25;;;;;;;3.88;2.00;;;;;;;11.80;100.00;96418.41;5007224;28;24433;-74
2022/10/17 01:03:51;;;;;;;2.50;1.73;;;;;;;11.82;100.00;96414.75;5011878;28;24455;-74
2022/10/17 01:06:18;;;;;;;6.18;1.90;;;;;;;11.84;100.00;96415.56;5010359;28;24916;-75
2022/10/17 01:08:46;;;;;;;4.03;2.15;;;;;;;11.62;100.00;96418.50;5016279;28;24442;-74
2022/10/17 01:11:26;;;;;;;4.72;2.20;;;;;;;11.53;100.00;96420.78;5025202;28;25005;-74
2022/10/17 01:13:59;;;;;;;7.57;2.20;;;;;;;11.41;100.00;96418.88;5013136;28;24439;-75
2022/10/17 01:16:36;;;;;;;7.32;2.38;;;;;;;11.37;100.00;96419.03;5008264;28;24463;-74
2022/10/17 01:19:26;;;;;;;3.33;1.80;;;;;;;11.31;100.00;96416.81;5006842;28;24443;-74
2022/10/17 01:21:59;;;;;;;2.55;1.90;;;;;;;11.39;100.00;96414.63;5011571;28;24435;-76
2022/10/17 01:24:55;;;;;;;7.10;1.90;;;;;;;11.48;100.00;96422.81;5015068;28;24460;-75
2022/10/17 01:27:50;;;;;;;3.75;1.73;;;;;;;11.52;100.00;96419.09;4996795;28;24780;-74
2022/10/17 01:31:06;;;;;;;5.70;2.10;;;;;;;11.38;100.00;96423.31;5009758;28;24443;-76
2022/10/17 01:33:48;;;;;;;3.03;1.80;;;;;;;11.28;100.00;96416.13;5014688;28;24428;-76
2022/10/17 01:36:26;;;;;;;1.60;1.50;;;;;;;11.23;100.00;96413.78;5004778;28;24429;-76
2022/10/17 01:38:58;;;;;;;5.30;1.92;;;;;;;11.23;100.00;96416.38;5000525;28;25001;-74
2022/10/17 01:41:34;;;;;;;1.85;1.50;;;;;;;11.37;100.00;96420.81;5007484;28;24823;-74
2022/10/17 01:44:05;;;;;;;2.65;1.90;;;;;;;11.41;100.00;96419.69;5015696;28;24424;-74
2022/10/17 01:46:37;;;;;;;2.65;1.48;;;;;;;11.38;100.00;96425.06;5011048;28;24436;-77
2022/10/17 01:49:07;;;;;;;2.00;1.00;;;;;;;11.10;100.00;96415.38;5013842;28;24433;-76
2022/10/17 01:51:38;;;;;;;1.92;1.08;;;;;;;11.05;100.00;96413.06;5014216;28;24455;-75
2022/10/17 01:54:15;;;;;;;1.93;1.00;;;;;;;11.01;100.00;96410.69;5009526;28;24479;-74
2022/10/17 01:56:43;;;;;;;6.28;1.48;;;;;;;11.03;100.00;96416.63;5009678;28;24437;-77
2022/10/17 01:59:15;;;;;;;3.45;1.40;;;;;;;11.08;100.00;96414.63;5001557;28;24443;-74
2022/10/17 02:01:47;;;;;;;2.30;1.15;;;;;;;11.10;100.00;96412.78;5016358;28;24438;-74
2022/10/17 02:04:15;;;;;;;4.20;1.45;;;;;;;11.16;100.00;96409.88;4997354;28;25012;-74
2022/10/17 02:06:42;;;;;;;4.03;1.55;;;;;;;11.18;100.00;96415.78;5010373;28;24532;-72
2022/10/17 02:09:20;;;;;;;2.78;1.52;;;;;;;11.22;100.00;96408.69;5016822;28;24440;-73
2022/10/17 02:12:12;;;;;;;4.15;1.73;;;;;;;11.14;100.00;96407.34;5016903;28;24459;-72
2022/10/17 02:14:50;;;;;;;3.83;1.45;;;;;;;11.20;100.00;96401.00;5016975;28;24447;-72
2022/10/17 02:17:30;;;;;;;5.72;1.60;;;;;;;11.28;100.00;96406.59;5005434;28;24442;-72
2022/10/17 02:20:09;;;;;;;4.80;1.52;;;;;;;11.30;100.00;96409.09;5011309;28;24442;-72
2022/10/17 02:22:41;;;;;;;4.40;1.42;;;;;;;11.13;100.00;96407.44;5009740;28;24451;-72
2022/10/17 02:25:14;;;;;;;2.40;1.40;;;;;;;10.98;100.00;96411.72;5010901;28;24452;-72
2022/10/17 02:27:48;;;;;;;2.00;1.33;;;;;;;10.93;100.00;96410.28;5009289;28;24517;-74
2022/10/17 02:30:25;;;;;;;1.55;1.30;;;;;;;10.89;100.00;96414.78;5008456;28;24997;-73
2022/10/17 02:32:59;;;;;;;1.85;1.35;;;;;;;10.82;100.00;96411.66;5009388;28;24432;-73
2022/10/17 02:35:30;;;;;;;3.22;1.60;;;;;;;10.75;100.00;96410.31;5010386;28;24436;-73
2022/10/17 02:37:58;;;;;;;5.05;1.65;;;;;;;10.83;100.00;96415.97;5002621;28;24433;-73
2022/10/17 02:40:29;;;;;;;3.72;1.52;;;;;;;10.94;100.00;96423.16;5011977;28;25035;-75
2022/10/17 02:42:56;;;;;;;3.45;1.67;;;;;;;10.93;100.00;96421.47;5014871;28;24799;-73
2022/10/17 02:45:26;;;;;;;2.50;1.60;;;;;;;10.90;100.00;96417.31;5010645;28;24798;-73
2022/10/17 02:48:00;;;;;;;2.90;1.63;;;;;;;10.71;100.00;96414.00;5011002;28;24437;-74
2022/10/17 02:50:35;;;;;;;2.95;1.70;;;;;;;10.67;100.00;96420.25;5013134;28;24449;-74
2022/10/17 02:53:08;;;;;;;3.67;1.98;;;;;;;10.62;100.00;96411.91;5012935;28;20780;-73
2022/10/17 02:55:40;;;;;;;3.60;1.90;;;;;;;10.59;100.00;96412.06;5003366;28;24437;-73
2022/10/17 02:58:12;;;;;;;5.13;2.08;;;;;;;10.59;100.00;96412.91;5014209;28;24810;-73
2022/10/17 03:00:40;;;;;;;5.00;2.33;;;;;;;10.60;100.00;96419.75;5012148;28;24509;-74
2022/10/17 03:03:20;;;;;;;4.82;2.00;;;;;;;10.63;100.00;96426.53;5015042;28;24444;-73
2022/10/17 03:05:47;;;;;;;4.10;2.00;;;;;;;10.62;100.00;96424.88;5011948;28;24443;-73
2022/10/17 03:08:13;;;;;;;3.00;1.83;;;;;;;10.65;100.00;96416.94;5002237;28;24443;-75
2022/10/17 03:10:40;;;;;;;5.68;2.15;;;;;;;10.62;100.00;96424.88;5004173;28;24440;-74
2022/10/17 03:13:06;;;;;;;2.25;1.70;;;;;;;10.64;100.00;96421.28;5016070;28;24432;-73
2022/10/17 03:15:33;;;;;;;1.80;1.70;;;;;;;10.58;100.00;96415.59;5010339;28;24437;-74
2022/10/17 03:17:59;;;;;;;3.53;1.67;;;;;;;10.63;100.00;96413.56;5011526;28;24470;-74
2022/10/17 03:20:27;;;;;;;4.32;1.50;;;;;;;10.70;100.00;96414.94;5012901;28;24472;-75
2022/10/17 03:22:54;;;;;;;3.20;1.40;;;;;;;10.67;100.00;96420.25;5004259;28;24436;-74
2022/10/17 03:25:20;;;;;;;4.70;1.40;;;;;;;10.60;100.00;96411.97;5011474;28;24448;-73
2022/10/17 03:27:47;;;;;;;5.82;1.42;;;;;;;10.64;100.00;96417.81;5010038;28;24438;-73
2022/10/17 03:30:13;;;;;;;3.10;1.33;;;;;;;10.69;100.00;96421.03;5014155;28;25025;-74
2022/10/17 03:32:40;;;;;;;3.33;1.42;;;;;;;10.62;100.00;96422.28;5007174;28;24452;-75
2022/10/17 03:35:07;;;;;;;3.78;1.45;;;;;;;10.59;100.00;96427.59;4998325;28;24447;-74
2022/10/17 03:37:35;;;;;;;1.63;1.13;;;;;;;10.50;100.00;96425.50;5008339;28;24449;-73
2022/10/17 03:40:01;;;;;;;5.10;1.40;;;;;;;10.46;100.00;96430.00;5013718;28;24809;-73
2022/10/17 03:42:28;;;;;;;2.13;1.40;;;;;;;10.34;100.00;96433.22;5010785;28;24435;-73
2022/10/17 03:44:54;;;;;;;4.40;1.30;;;;;;;10.29;100.00;96428.28;5012911;28;24441;-74
2022/10/17 03:47:21;;;;;;;14.03;1.70;;;;;;;10.13;100.00;96429.94;5013067;28;24813;-73
2022/10/17 03:49:47;;;;;;;2.30;1.50;;;;;;;10.16;100.00;96435.81;5014218;28;24480;-73
2022/10/17 03:52:15;;;;;;;4.90;1.50;;;;;;;10.23;100.00;96443.25;5021875;28;24452;-73
2022/10/17 03:54:42;;;;;;;3.38;1.50;;;;;;;10.17;100.00;96450.41;5008924;28;24448;-73
2022/10/17 03:57:09;;;;;;;1.48;1.20;;;;;;;10.22;100.00;96446.75;5009932;28;24479;-75
2022/10/17 03:59:35;;;;;;;2.40;1.20;;;;;;;10.23;100.00;96456.19;5016541;28;24802;-73
2022/10/17 04:02:02;;;;;;;4.00;1.70;;;;;;;10.27;100.00;96465.50;5011282;28;24443;-73
2022/10/17 04:04:28;;;;;;;3.38;1.25;;;;;;;10.17;100.00;96462.53;5017266;28;24451;-73
2022/10/17 04:06:55;;;;;;;5.70;1.23;;;;;;;10.01;100.00;96459.00;5011943;28;24447;-73
2022/10/17 04:09:21;;;;;;;1.93;1.00;;;;;;;9.88;100.00;96451.84;5015472;28;24455;-74
2022/10/17 04:11:49;;;;;;;0.93;0.90;;;;;;;10.03;100.00;96457.19;5014847;28;24452;-73
2022/10/17 04:14:16;;;;;;;1.30;1.00;;;;;;;10.06;100.00;96460.47;5013760;28;24520;-73
2022/10/17 04:16:42;;;;;;;1.17;1.00;;;;;;;10.07;100.00;96464.72;5012334;28;24455;-73
2022/10/17 04:19:13;;;;;;;2.00;1.10;;;;;;;10.07;100.00;96461.31;5017349;28;24446;-73
2022/10/17 04:21:40;;;;;;;1.15;1.05;;;;;;;10.09;100.00;96467.25;5012844;28;24428;-73
2022/10/17 04:24:06;;;;;;;1.57;1.17;;;;;;;10.11;100.00;96466.25;5014001;28;24448;-73
2022/10/17 04:26:33;;;;;;;3.63;1.20;;;;;;;10.05;100.00;96471.75;5012261;28;24451;-74
2022/10/17 04:29:00;;;;;;;3.15;1.20;;;;;;;10.05;100.00;96470.88;5009330;28;24459;-74
2022/10/17 04:31:27;;;;;;;1.97;1.10;;;;;;;10.03;100.00;96472.72;5013843;28;24528;-74
2022/10/17 04:33:53;;;;;;;2.22;1.23;;;;;;;10.02;100.00;96477.06;5022526;28;24435;-74
2022/10/17 04:36:21;;;;;;;2.08;1.20;;;;;;;9.97;100.00;96475.59;5004168;28;24436;-73
2022/10/17 04:38:48;;;;;;;1.73;1.25;;;;;;;10.01;100.00;96471.94;5010532;28;25004;-73
2022/10/17 04:41:17;;;;;;;1.90;1.00;;;;;;;10.05;100.00;96473.47;5010310;28;24439;-73
2022/10/17 04:43:44;;;;;;;1.80;1.00;;;;;;;10.09;100.00;96470.69;5005538;28;24451;-73
2022/10/17 04:46:14;;;;;;;1.35;1.05;;;;;;;10.03;100.00;96473.56;5016725;28;24440;-73
2022/10/17 04:48:41;;;;;;;2.70;1.17;;;;;;;10.01;100.00;96471.94;5017192;28;24441;-73
2022/10/17 04:51:10;;;;;;;3.30;1.20;;;;;;;10.07;100.00;96474.25;5016849;28;25074;-73
2022/10/17 04:53:38;;;;;;;2.80;1.20;;;;;;;10.12;100.00;96469.66;5004239;28;24433;-73
2022/10/17 04:56:08;;;;;;;2.30;1.20;;;;;;;10.22;100.00;96472.66;5002245;28;24455;-73
2022/10/17 04:58:35;;;;;;;2.85;1.33;;;;;;;9.98;100.00;96467.78;5010131;28;25032;-73
2022/10/17 05:01:04;;;;;;;2.67;1.50;;;;;;;9.89;100.00;96465.63;5020110;28;24431;-73
2022/10/17 05:03:32;;;;;;;3.40;1.50;;;;;;;9.83;100.00;96469.38;5012009;28;24428;-73
2022/10/17 05:06:02;;;;;;;3.85;1.52;;;;;;;9.83;100.00;96469.38;5016317;28;24476;-74
2022/10/17 05:08:29;;;;;;;3.05;2.03;;;;;;;9.82;100.00;96467.66;5011016;28;24436;-73
2022/10/17 05:10:55;;;;;;;6.28;2.15;;;;;;;9.82;100.00;96467.66;5020432;28;24439;-73
2022/10/17 05:13:22;;;;;;;6.00;2.75;;;;;;;9.78;100.00;96468.75;5015996;28;24455;-74
2022/10/17 05:15:49;;;;;;;8.05;2.90;;;;;;;9.92;100.00;96470.66;5011313;28;24443;-74
2022/10/17 05:18:15;;;;;;;4.82;2.78;;;;;;;9.98;100.00;96464.38;5011837;28;24439;-74
2022/10/17 05:20:43;;;;;;;5.10;2.97;;;;;;;9.96;100.00;96468.75;5014224;28;24447;-74
2022/10/17 05:23:10;;;;;;;4.05;2.70;;;;;;;9.98;100.00;96456.59;5009234;28;24439;-74
2022/10/17 05:25:36;;;;;;;3.65;1.98;;;;;;;9.97;100.00;96466.09;5010963;28;24436;-74
2022/10/17 05:28:03;;;;;;;4.80;2.40;;;;;;;10.03;100.00;96470.13;5017068;28;24440;-72
2022/10/17 05:30:29;;;;;;;3.38;2.00;;;;;;;10.12;100.00;96469.66;5010777;28;24467;-74
2022/10/17 05:32:56;;;;;;;4.38;2.13;;;;;;;10.12;100.00;96477.44;5010751;28;24451;-75
2022/10/17 05:35:22;;;;;;;2.85;1.80;;;;;;;10.08;100.00;96475.91;5011516;28;24432;-74
2022/10/17 05:37:50;;;;;;;3.80;1.60;;;;;;;10.08;100.00;96475.91;5026302;28;24428;-74
2022/10/17 05:40:17;;;;;;;4.20;1.90;;;;;;;10.11;100.00;96483.53;5008985;28;24459;-73
2022/10/17 05:42:46;;;;;;;3.80;1.80;;;;;;;10.07;100.00;96488.03;5016381;28;24437;-74
2022/10/17 05:45:13;;;;;;;3.65;1.95;;;;;;;10.01;100.00;96493.50;5008471;28;24471;-74
2022/10/17 05:47:39;;;;;;;4.32;1.98;;;;;;;9.99;100.00;96490.16;5020334;28;24440;-74
2022/10/17 05:50:07;;;;;;;4.45;1.80;;;;;;;9.94;100.00;96486.97;5016514;28;24444;-73
2022/10/17 05:52:34;;;;;;;6.55;1.80;;;;;;;9.90;100.00;96488.88;5011655;28;25003;-74
2022/10/17 05:55:02;;;;;;;3.80;1.60;;;;;;;9.92;100.00;96493.94;5011539;28;24425;-74
2022/10/17 05:57:28;;;;;;;5.40;1.70;;;;;;;9.93;100.00;96491.28;5012529;28;24432;-74
2022/10/17 05:59:55;;;;;;;4.10;1.50;;;;;;;9.94;100.00;96489.56;5019151;28;24443;-74
2022/10/17 06:02:21;;;;;;;1.87;1.40;;;;;;;9.96;100.00;96494.63;5011779;28;24437;-73
2022/10/17 06:04:48;;;;;;;1.60;1.50;;;;;;;9.97;100.00;96499.72;5019411;28;24522;-73
2022/10/17 06:07:15;;;;;;;3.58;1.63;;;;;;;9.98;100.00;96498.84;5011558;28;24436;-74
2022/10/17 06:09:42;;;;;;;2.78;1.70;;;;;;;10.00;100.00;96502.16;5020114;28;24424;-73
2022/10/17 06:12:10;;;;;;;3.90;1.60;;;;;;;9.97;100.00;96504.91;5011650;28;24452;-75
2022/10/17 06:14:36;;;;;;;1.90;1.60;;;;;;;9.99;100.00;96505.69;5018026;28;24446;-73
2022/10/17 06:17:03;;;;;;;2.30;1.30;;;;;;;10.04;100.00;96505.44;5012814;28;24436;-73
2022/10/17 06:19:29;;;;;;;5.57;1.30;;;;;;;10.06;100.00;96504.47;5018805;28;24509;-74
2022/10/17 06:21:56;;;;;;;2.42;1.77;;;;;;;10.10;100.00;96515.50;5013272;28;24435;-74
2022/10/17 06:24:22;;;;;;;4.07;1.95;;;;;;;10.12;100.00;96519.72;5016769;28;24432;-73
2022/10/17 06:26:50;;;;;;;2.35;2.00;;;;;;;10.18;100.00;96523.72;5014448;28;24443;-73
2022/10/17 06:29:18;;;;;;;5.20;2.00;;;;;;;10.26;100.00;96526.81;5016603;28;24474;-74
2022/10/17 06:31:44;;;;;;;3.40;1.52;;;;;;;10.31;100.00;96534.38;5014955;28;24436;-73
2022/10/17 06:34:10;;;;;;;1.52;1.42;;;;;;;10.33;100.00;96528.19;5014603;28;24447;-74
2022/10/17 06:36:37;;;;;;;1.95;1.27;;;;;;;10.47;100.00;96532.69;5007855;28;24996;-74
2022/10/17 06:39:04;;;;;;;3.53;1.50;;;;;;;10.60;100.00;96538.91;5012630;28;24447;-73
2022/10/17 06:41:30;;;;;;;1.97;1.33;;;;;;;10.77;100.00;96535.47;5011629;28;25023;-74
2022/10/17 06:43:57;;;;;;;3.95;1.60;;;;;;;10.87;100.00;96548.78;5014814;28;24435;-74
2022/10/17 06:46:25;;;;;;;3.40;1.58;;;;;;;11.01;100.00;96555.84;5012388;28;24444;-74
2022/10/17 06:48:52;;;;;;;3.40;1.45;;;;;;;11.18;100.00;96560.97;5012540;28;24432;-73
2022/10/17 06:51:18;;;;;;;4.57;1.65;;;;;;;11.34;100.00;96563.59;5014836;28;24794;-74
2022/10/17 06:53:45;;;;;;;3.38;1.42;;;;;;;11.38;100.00;96562.50;5013500;28;24456;-73
2022/10/17 06:56:12;;;;;;;2.97;1.67;;;;;;;11.45;100.00;96561.28;5001951;28;24480;-74
2022/10/17 06:58:39;;;;;;;3.05;1.65;;;;;;;11.46;100.00;96560.38;5001807;28;24447;-74
2022/10/17 07:01:08;;;;;;;2.33;1.40;;;;;;;11.28;100.00;96571.72;5007545;28;24451;-73
2022/10/17 07:03:37;;;;;;;2.80;1.83;;;;;;;11.38;100.00;96565.97;5016212;28;25007;-73
2022/10/17 07:06:04;;;;;;;3.33;1.45;;;;;;;11.55;100.00;96569.41;5013062;28;25038;-74
2022/10/17 07:08:30;;;;;;;3.20;1.67;;;;;;;11.83;100.00;96576.53;5016515;28;24799;-74
2022/10/17 07:10:57;;;;;;;3.40;1.83;;;;;;;11.84;100.00;96571.28;5015113;28;24447;-73
2022/10/17 07:13:24;;;;;;;4.63;1.65;;;;;;;11.70;100.00;96575.53;5014468;28;24463;-74
2022/10/17 07:15:51;;;;;;;3.85;1.98;;;;;;;11.74;100.00;96572.66;5012780;28;24436;-75
2022/10/17 07:18:17;;;;;;;3.30;1.42;;;;;;;11.94;100.00;96575.97;5015428;28;24483;-74
2022/10/17 07:20:52;;;;;;;5.43;1.63;;;;;;;11.86;100.00;96590.22;5000618;28;24433;-74
2022/10/17 07:23:19;;;;;;;3.67;1.70;;;;;;;11.80;100.00;96581.91;5000232;28;24985;-75
2022/10/17 07:25:45;;;;;;;4.07;1.70;;;;;;;11.83;100.00;96590.38;5012850;28;24525;-74
2022/10/17 07:28:12;;;;;;;6.80;1.88;;;;;;;11.97;100.00;96599.16;5013844;28;24436;-74
2022/10/17 07:30:38;;;;;;;3.72;1.50;;;;;;;12.03;100.00;96583.25;5009256;28;24801;-74
2022/10/17 07:33:05;;;;;;;5.60;1.80;;;;;;;12.26;100.00;96587.16;5007433;28;24459;-74
2022/10/17 07:35:32;;;;;;;2.75;1.60;;;;;;;12.23;100.00;96582.13;5006609;28;24436;-74
2022/10/17 07:37:59;;;;;;;5.65;1.58;;;;;;;12.49;100.00;96589.28;5009457;28;24435;-75
2022/10/17 07:40:26;;;;;;;3.17;1.90;;;;;;;12.57;100.00;96596.66;5004355;28;24981;-76
2022/10/17 07:42:54;;;;;;;4.22;1.80;;;;;;;12.59;100.00;96600.81;5004841;28;24432;-74
2022/10/17 07:45:22;;;;;;;4.28;1.70;;;;;;;12.70;100.00;96597.59;5011490;28;24455;-74
2022/10/17 07:47:49;;;;;;;3.93;1.43;;;;;;;12.79;100.00;96599.69;5010077;28;24463;-74
2022/10/17 07:50:15;;;;;;;4.37;1.90;;;;;;;12.88;100.00;96598.28;5010325;28;24996;-74
2022/10/17 07:52:42;;;;;;;2.63;1.73;;;;;;;13.05;100.00;96595.53;5003889;28;25109;-74
2022/10/17 07:55:10;;;;;;;2.35;1.80;;;;;;;13.35;100.00;96605.06;5002863;28;24447;-74
2022/10/17 07:57:39;;;;;;;4.13;1.75;;;;;;;13.45;100.00;96602.72;5013773;28;24444;-73
2022/10/17 08:00:07;;;;;;;3.38;1.98;;;;;;;13.58;100.00;96605.44;5007267;28;24447;-75
2022/10/17 08:02:33;;;;;;;4.22;1.88;;;;;;;13.80;100.00;96601.41;5007420;28;25068;-73
2022/10/17 08:05:00;;;;;;;4.28;1.67;;;;;;;14.03;100.00;96601.72;5012799;28;24451;-74
2022/10/17 08:07:26;;;;;;;4.38;2.00;;;;;;;14.09;100.00;96603.09;5017152;28;24436;-74
2022/10/17 08:09:53;;;;;;;3.42;1.70;;;;;;;14.09;100.00;96609.16;5013202;28;24447;-74
2022/10/17 08:12:21;;;;;;;4.57;1.90;;;;;;;14.09;100.00;96603.09;5018586;28;24436;-74
2022/10/17 08:14:48;;;;;;;3.05;1.77;;;;;;;14.17;100.00;96606.06;5009501;28;24443;-73
2022/10/17 08:17:14;;;;;;;3.40;1.50;;;;;;;14.25;100.00;96602.03;5011113;28;24491;-74
2022/10/17 08:19:41;;;;;;;7.70;1.90;;;;;;;14.45;100.00;96605.94;5010078;28;24432;-75
2022/10/17 08:22:08;;;;;;;4.00;2.00;;;;;;;14.33;100.00;96608.50;5014460;28;24992;-75
2022/10/17 08:24:34;;;;;;;11.40;2.10;;;;;;;14.49;100.00;96611.78;5011844;28;24432;-74
2022/10/17 08:27:01;;;;;;;3.78;2.08;;;;;;;14.59;100.00;96605.06;5014540;28;24444;-75
2022/10/17 08:29:31;;;;;;;3.95;1.80;;;;;;;14.64;100.00;96605.59;5017750;28;24472;-74
2022/10/17 08:31:58;;;;;;;3.67;1.65;;;;;;;14.79;100.00;96601.16;5016012;28;24538;-74
2022/10/17 08:34:24;;;;;;;3.50;1.90;;;;;;;14.86;100.00;96610.22;5010036;28;24472;-74
2022/10/17 08:36:51;;;;;;;2.55;1.85;;;;;;;15.20;100.00;96610.56;5011798;28;24796;-74
2022/10/17 08:39:17;;;;;;;3.57;2.00;;;;;;;15.43;100.00;96611.66;5006203;28;24538;-75
2022/10/17 08:41:53;;;;;;;3.38;1.70;;;;;;;15.72;100.00;96612.25;5018147;28;24802;-74
2022/10/17 08:44:32;;;;;;;4.15;1.83;;;;;;;15.89;100.00;96617.13;5005578;28;24452;-74
2022/10/17 08:47:03;;;;;;;3.17;1.73;;;;;;;16.04;100.00;96612.59;4999892;28;24448;-75
2022/10/17 08:49:40;;;;;;;5.10;1.80;;;;;;;16.13;100.00;96621.53;5007931;28;24444;-75
2022/10/17 08:52:14;;;;;;;4.28;1.90;;;;;;;16.23;100.00;96626.97;5018136;28;24459;-75
2022/10/17 08:54:42;;;;;;;2.47;1.73;;;;;;;16.33;100.00;96623.56;5007487;28;24464;-74
2022/10/17 08:57:12;;;;;;;7.65;1.90;;;;;;;16.41;100.00;96615.16;5008884;28;24473;-74
2022/10/17 08:59:39;;;;;;;2.47;1.80;;;;;;;16.66;100.00;96627.28;5010869;28;24490;-74
2022/10/17 09:02:22;;;;;;;5.20;1.98;;;;;;;16.97;100.00;96622.44;5004727;28;25016;-74
2022/10/17 09:05:08;;;;;;;12.40;2.17;;;;;;;17.20;100.00;96618.06;5015085;28;24450;-74
2022/10/17 09:07:42;;;;;;;5.40;2.08;;;;;;;17.18;100.00;96608.56;5004205;28;24444;-74
2022/10/17 09:10:16;;;;;;;3.35;1.90;;;;;;;17.35;100.00;96616.91;5011339;28;24436;-75
2022/10/17 09:12:51;;;;;;;4.28;1.70;;;;;;;17.20;100.00;96618.06;5009978;28;24440;-75
2022/10/17 09:15:42;;;;;;;5.10;1.60;;;;;;;17.34;100.00;96623.09;5007221;28;24448;-75
2022/10/17 09:18:15;;;;;;;5.00;2.00;;;;;;;17.45;100.00;96632.75;5007909;28;24448;-74
2022/10/17 09:20:47;;;;;;;4.15;1.80;;;;;;;17.60;100.00;96616.69;5009665;28;24436;-74
2022/10/17 09:23:18;;;;;;;3.60;1.93;;;;;;;17.74;100.00;96626.09;5007046;28;24514;-74
2022/10/17 09:25:47;;;;;;;4.47;2.20;;;;;;;17.63;100.00;96618.25;5004165;28;24452;-75
2022/10/17 09:28:20;;;;;;;2.63;1.65;;;;;;;17.76;100.00;96628.63;5007582;28;24869;-73
2022/10/17 09:30:52;;;;;;;4.25;1.90;;;;;;;17.97;100.00;96624.31;5007721;28;24463;-75
2022/10/17 09:33:21;;;;;;;4.13;1.90;;;;;;;18.03;100.00;96620.41;5016773;28;24463;-73
2022/10/17 09:35:50;;;;;;;2.92;1.70;;;;;;;18.23;100.00;96624.06;5011346;28;25313;-74
2022/10/17 09:38:18;;;;;;;4.17;1.70;;;;;;;18.19;100.00;96623.47;5008395;28;24992;-73
2022/10/17 09:40:50;;;;;;;6.28;1.90;;;;;;;18.18;100.00;96624.44;5014902;28;24452;-73
2022/10/17 09:43:16;;;;;;;2.25;1.52;;;;;;;18.20;100.00;96617.25;5020337;28;24487;-72
2022/10/17 09:45:47;;;;;;;7.07;1.90;;;;;;;18.40;100.00;96610.44;5004883;28;24440;-72
2022/10/17 09:48:22;;;;;;;3.72;1.83;;;;;;;18.56;100.00;96610.84;5010149;28;24428;-73
2022/10/17 09:50:49;;;;;;;3.55;1.63;;;;;;;18.85;100.00;96616.34;5010282;28;24452;-74
2022/10/17 09:53:22;;;;;;;4.47;1.73;;;;;;;18.78;100.00;96619.63;5017491;28;24459;-73
2022/10/17 09:55:54;;;;;;;5.88;1.80;;;;;;;19.00;100.00;96621.31;5009973;28;25036;-74
2022/10/17 09:58:23;;;;;;;5.15;1.95;;;;;;;18.81;100.00;96624.63;5002514;28;20862;-75
2022/10/17 10:00:50;;;;;;;4.55;1.83;;;;;;;19.00;100.00;96621.31;5012410;28;24436;-73
2022/10/17 10:03:20;;;;;;;4.13;1.83;;;;;;;19.07;100.00;96627.72;5013864;28;24989;-74
2022/10/17 10:06:00;;;;;;;3.40;1.80;;;;;;;19.15;100.00;96627.91;5013735;28;24440;-75
2022/10/17 10:08:29;;;;;;;4.90;1.80;;;;;;;19.03;100.00;96627.13;5014204;28;24507;-74
2022/10/17 10:11:04;;;;;;;5.43;1.50;;;;;;;19.39;100.00;96626.78;5013897;28;24437;-74
2022/10/17 10:13:32;;;;;;;2.45;1.52;;;;;;;19.82;100.00;96629.25;5005933;28;24460;-73
2022/10/17 10:16:21;;;;;;;3.08;1.52;;;;;;;19.61;100.00;96631.88;5012684;28;24460;-75
2022/10/17 10:18:50;;;;;;;6.60;1.98;;;;;;;19.55;100.00;96635.88;5008075;28;24463;-74
2022/10/17 10:21:18;;;;;;;4.03;1.70;;;;;;;19.60;100.00;96630.22;5016085;28;24467;-74
2022/10/17 10:24:03;;;;;;;9.07;1.85;;;;;;;19.69;100.00;96636.50;5011111;28;24439;-72
2022/10/17 10:26:34;;;;;;;5.15;1.60;;;;;;;19.81;100.00;96633.66;5005696;28;24432;-74
2022/10/17 10:29:04;;;;;;;3.75;1.50;;;;;;;20.12;100.00;96628.38;5008794;28;25020;-74
2022/10/17 10:31:35;;;;;;;2.80;1.63;;;;;;;20.28;100.00;96630.47;5015132;28;25042;-73
2022/10/17 10:34:14;;;;;;;3.17;1.48;;;;;;;20.15;100.00;96629.91;5005524;28;24456;-73
2022/10/17 10:36:45;;;;;;;2.90;1.42;;;;;;;20.27;100.00;96636.72;5003666;28;24443;-73
2022/10/17 10:39:26;;;;;;;4.68;1.70;;;;;;;20.23;100.00;96625.63;5011976;28;24439;-74
2022/10/17 10:41:53;;;;;;;3.67;1.50;;;;;;;20.29;100.00;96626.91;5009053;28;24445;-73
2022/10/17 10:44:24;;;;;;;4.35;1.63;;;;;;;20.40;100.00;96625.97;5014645;28;24447;-73
2022/10/17 10:47:06;;;;;;;2.33;1.60;;;;;;;20.59;100.00;96623.38;5012067;28;24440;-74
2022/10/17 10:49:34;;;;;;;5.70;1.43;;;;;;;20.79;100.00;96630.28;5012526;28;24806;-73
2022/10/17 10:52:03;;;;;;;5.20;1.70;;;;;;;20.87;97.66;96628.78;4994664;28;24471;-74
2022/10/17 10:54:35;;;;;;;6.85;1.60;;;;;;;20.89;98.59;96621.56;5013335;28;24997;-74
2022/10/17 10:57:06;;;;;;;4.57;1.58;;;;;;;20.96;96.16;96623.50;5006132;28;24455;-74
2022/10/17 10:59:37;;;;;;;4.93;1.80;;;;;;;21.01;96.01;96625.72;5009068;28;24543;-73
2022/10/17 11:02:13;;;;;;;5.20;1.55;;;;;;;21.13;98.36;96624.59;5006717;28;24814;-73
2022/10/17 11:04:46;;;;;;;5.90;1.73;;;;;;;21.27;93.93;96632.06;5009305;28;25004;-74
2022/10/17 11:07:16;;;;;;;6.13;1.50;;;;;;;21.22;92.48;96625.56;5016670;28;24443;-75
2022/10/17 11:09:51;;;;;;;5.30;1.70;;;;;;;21.16;92.24;96632.22;5009100;28;24439;-74
2022/10/17 11:12:22;;;;;;;6.07;1.73;;;;;;;21.16;92.86;96631.38;5008927;28;24441;-73
2022/10/17 11:14:54;;;;;;;4.67;1.90;;;;;;;21.22;91.95;96628.19;5012690;28;24472;-74
2022/10/17 11:17:30;;;;;;;4.82;1.50;;;;;;;21.25;89.55;96626.13;5005419;28;24815;-74
2022/10/17 11:20:06;;;;;;;6.18;1.52;;;;;;;21.36;91.31;96630.44;5007395;28;24437;-74
2022/10/17 11:22:37;;;;;;;6.05;1.83;;;;;;;21.45;90.41;96634.00;5007626;28;24448;-74
2022/10/17 11:25:14;;;;;;;4.80;1.35;;;;;;;21.58;92.17;96628.41;5014269;28;24478;-74
2022/10/17 11:27:41;;;;;;;3.63;1.48;;;;;;;21.59;92.79;96627.44;5009232;28;24443;-74
2022/10/17 11:30:12;;;;;;;4.07;1.50;;;;;;;21.66;89.07;96626.72;5007912;28;24452;-74
2022/10/17 11:32:44;;;;;;;3.25;1.48;;;;;;;21.64;89.98;96625.19;5012045;28;24436;-73
2022/10/17 11:35:18;;;;;;;4.43;1.40;;;;;;;21.68;83.71;96626.56;5003556;28;24463;-74
2022/10/17 11:37:50;;;;;;;6.72;1.70;;;;;;;21.71;82.71;96624.47;5015259;28;25176;-74